Timeline UpdatesTrip UpdatesNews PostsPvt Posts♥♥Travel TipsAdmin PostsConv PostsFollowed PostsChat RequestsBlog PostsPNR Posts

Disclaimer
Search
 
 
Tue Nov 25, 2014 03:13:00 ISTHomeTrainsΣChainsAtlasPNRForumGalleryNewsFAQTripsMembersLoginFeedback
No Recent News for this Train
Other Trains in the News **new
Latest...
Cancelled from 31/12/14-15/2/15 #1263410
Sat Nov 01, 2014 (07:19PM)
⇐ Return Journey: Train# 15483

14084⇒15484/Sikkim Mahananda Express

Nov 25 departure has been Rescheduled to start 8h 55m late
New Time: 15:30
Time-Table HAS CHANGED.
Nov 01 (7:19PM)
Change Departure Station:
Change Arrival Station:
Post a Train Travel TipPost a Train Travel Tip **new
Post a Comment/Question/Picture/VideoPost a Comment/Question/Picture/Video
Pantry/Catering
✓ Pantry Car Avbl
✓ Catering Avbl
RSA - Rake Sharing
Rake/Coach Composition
LOCO-SLR-GS-GS-GS-S1-S2-S3-S4-S5-S6-S7-S8-S9-S10-S11-PC-B1-AB-GS-GS-GS-SLR
Loco
DLI - PNBE: Mughalsarai shed WAP-4 or Ghaziabad shed WAP-4/7 PNBE...
Read more...
- APDJ: WDP4/4B of Siliguri shed. **Spotted with MGS WAP-4 22739 at MGS on 30/03/2013**
News    PNR    Forum    Time-Table    Availability    Fare Chart    Map    Arr/Dep History    Trips    Gallery    ΣChains    X/O    Timeline    
Travel Time: 6h 21m    11 halts    Distance: 316 km    Avg Speed: 49 km/hr
Type: Mail/Express
Zone: NFR/Northeast Frontier
Departs @ 06:35 (Avg 1h 36m late)
Platform# 9
SMTWTFS
Old Delhi Junction/DLI 
Arrives @ 12:56 (Avg 1h 31m late)
Platform# 3
SMTWTFS
Bharthana/BNT 

11 halts. 45 intermediate Stations between Old Delhi Junction and Bharthana

Show ALL intermediate Stations  Show Old Time-Table

#TrkCodeStation NameX/OArrivesAvgDepartsAvgHaltPFDay#KmSpeedElevZoneAddress
1/==/DLIOld Delhi Junction (16)»  -06:40 06:35+1:36910.027219mNRNear Chandni Chowk Metro Station, Delhi NCT
2/==/DSAShahdara Junction (4)X  06:56 06:49+1:3706:58 06:51+1:372m216.325212mNRCircular Rd, Delhi NCT
3/==/GZBGhaziabad Junction (6)X  07:26 07:24+1:2307:28 07:26+1:262m2119.976217mNRGhaziabad, Uttar Pradesh
4/==/CHLChola (3)  08:04+1:4608:06+1:422m--168.058204mNCRTahsil Bulandshahar, Uttar Pradesh
5/==/KRJKhurja Junction (4)X  08:21+1:4308:23+1:452m2182.671199mNCRBulandshahr, Uttar Pradesh
6/==/ALJNAligarh Junction (4)X  09:00+1:2309:05+1:235m11126.182192mNCRAligarh, Uttar Pradesh
7/==/HRSHathras Junction (3)X  09:27+1:3509:32+1:325m11156.286183mNCRMahamaya Nagar(05722-242803), Uttar Pradesh
8/==/JLSJalesar Road (1)X  09:46+1:3609:48+1:412m11176.323172mNCRMDR 106W, Uttar Pradesh
9/==/TDLTundla Junction (5)X  11:00+1:1111:08+1:118m31204.252167mNCRDistt.Firozabad, Uttar Pradesh
10/==/FZDFirozabad (4)  11:30 11:27+1:1311:32+1:112 5m21220.866164mNCRFirozabad, Uttar Pradesh
11/==/SKBShikohabad Junction (4)X  11:53 11:50+1:1211:55+1:112 5m21240.683166mNCRDistrict Firozabad, Uttar Pradesh
12/==/ETWEtawah (5)  12:38 12:35+1:3712:40+1:412 5m31296.075154mNCRDistt. Etawah, Uttar Pradesh
13/==/BNTBharthana (3)•  12:56+1:3112:58+1:322m31315.969147mNCRBharthana, Uttar Pradesh
14/==/ULDAchalda (3)  13:15+1:3213:17+1:322m31335.463147mNCRDist. Auraiya(05688-1072), Uttar Pradesh
15/==/PHDPhaphund (4)X  13:33+1:3113:35+1:312m31352.270146mNCRdist. Auraiya, Uttar Pradesh
16/==/JJKJhinjhak (3)X  13:52+1:3613:54+1:362m31372.067140mNCRAuraiya, Uttar Pradesh
17/==/RURARura (4)X  14:11+1:3814:13+1:392m31391.160137mNCRJhinjhak, Uttar Pradesh
18/==/PNKPanki (3) new halt!!X  14:46+1:5214:48+1:542m21423.929129mNCRKANPUR-208 020, Uttar Pradesh
19/==/CNBKanpur Central (10)X  15:12+2:1215:20+2:168m51435.478128mNCRKANPUR-208 001, Uttar Pradesh
20/==/FTPFatehpur (3)  16:23 16:20+2:3916:25+2:412 5m21513.078120mNCRFatehpur, Uttar Pradesh
21/==/ALDAllahabad Junction (10)X  17:55+3:0418:05+3:2310m41629.739100mNCRAllahabad 211003, Uttar Pradesh
22/==%NYNNaini Junction (4)  18:16+3:3718:18+3:432m11636.88698mNCRAllahabad, Uttar Pradesh
23/==/BDLVindhyachal (3)X  19:10+4:1819:12+4:232m21711.62488mNCRMirzapur, Uttar Pradesh
24/==/MZPMirzapur (3)X  19:33 19:30+4:1919:35+4:362 5m21718.94588mNCRMirzapur, Uttar Pradesh
25/==/MGSMughal Sarai Junction (8)X  21:00+5:2421:15+5:2015m11782.16683mECRDistt: Chandauli Pin 232101, Uttar Pradesh
26/==/BXRBuxar (3)X  22:41+5:4722:43+5:502m--1876.09167mECRBuxar, Bihar
27/==/ARAAra Junction (3)  23:28+5:5323:30+5:532m--1944.58863mECRDistt: Bhojpur Ph 06182-233411, Bihar
28/==/DNRDanapur (5)X  23:57+5:4223:59+5:372m--1984.01658mECRKhagaul, Bihar
29/==/PNBEPatna Junction (10)X00:35+5:3701:00+5:4225m22993.47857mECRPatna 800001, Bihar
30/==/BKPBakhtiyarpur Junction (5)X  01:35+6:1701:37+6:182m--21038.85851mECRPatna, Bihar
31/==/MKAMokama Junction (4)X  02:22+6:1502:24+6:162m--21082.71448mECRPatna, Bihar
32/--%BJUBarauni Junction (9)  03:55+5:5304:00+5:535m121103.34249mECRBegusarai, Bihar
33%--%BGSBegusarai (3)  04:22 04:19+6:0504:24+6:022 5m--21116.84646mECRBegusarai, Bihar
34%==%LKNLakhminia (3)  04:54 04:47+6:0504:56 04:49+6:052m--21134.64845mECRBegusarai, Bihar
35%==%SKJSahibpur Kamal Junction (2)  05:08 05:01+6:0305:10 05:03+6:032m--21144.34641mECRShahpur Kamal, Bihar
36%==%KGGKhagaria Junction (3)XO  05:36 05:19+6:0405:38 05:20+6:082 1m--21156.72043mECRKhagaria, Bihar
37|-=%MNEMansi Junction (4)  05:46+5:5505:48+5:572m--21165.54243mECRMansi, Bihar
38%==%MSKMahes Khunt (2)  06:03+5:5606:05+5:572m--21175.93237mECRMaheshkhunt, Bihar
39%==%PSRPasraha (3)XO  06:28+6:0006:30+6:052m--21188.22541mECRPasraha, Bihar
40%==%NNRNarayanpur (2)XOO  06:58+5:5207:00+5:522m--21199.82739mECRNarayanpur, Bihar
41%==%NNANaugachia (3)X  08:04 07:53+5:2208:06 07:55+5:232m121223.46237mECRBhagalpur, Bihar
42%=-%KUEKurselaX  08:36 08:13+5:2708:38 08:15+5:282m--21241.94231mECRNH 31, Bihar
43%==%CRRKaragola RoadX  08:55 08:39+5:2808:57 08:41+5:282m--21258.96536mECRLachhmipur, Bihar
44%-=%SMOSemapurX  09:11 08:51+5:2809:13 08:53+5:292m--21269.61935mECRKatihar, Bihar
45%--%KIRKatihar Junction (7)  09:30+5:3709:50+5:3720m621281.25135mNFRKatihar 854105, Bihar
46%--%LAVLabha (2)  10:16 10:17+5:3610:18 10:19+5:372m121304.15429mNFRDist : Katihar, Bihar
47%==%AZRAzamnagar Road (3)X  10:41 10:43+5:4410:43 10:45+5:442m--21325.85334mNFRAzamnagar, Bihar
48%==%BOEBarsoi Junction (3)  10:56 11:00+5:5210:58 11:02+5:542m--21339.17337mNFRdist- katihar, Bihar
49%==%DLKDalkhola (3)  11:21 11:26+6:0711:23 11:28+6:072m--21368.27144mNFRDalkola, West Bengal
50%==%KNEKishanGanj (3)  11:48 11:52+6:3011:50 11:54+6:302m121396.77652mNFRKishanganj, Bihar
51%==%AUBAluabari Road (2)  12:15 12:18+6:1512:17 12:20+6:152m221427.3490mNFRDist - uttar Dinajpur, West Bengal
52%==|NJPNew Jalpaiguri Junction (8)X  13:30+5:5013:45+5:5215m121484.122114mNFRCity-Siliguri . Dist-Jalpaiguri, West Bengal
53|--|SGUJSiliguri Junction (6)O  14:05+6:1214:10 14:15+6:155 10m421491.361120mNFRDist - Darjeeling, West Bengal
54|--|NMZNew Mal Junction (3)X  15:06 15:02+7:2815:11 15:07+7:295m--21539.167161mNFRDist - Jalpaiguri, West Bengal
55|--|BNVBinnaguri (3)  15:50 15:47+8:0815:52+7:532 5m--21583.449132mNFRDist : jalpaiguri, West Bengal
56|--|DLODalgaon (3)  16:03+7:2316:05+7:232m--21592.447 NFRDist : Alipurduar, West Bengal
57|--|HSAHasimara (3)X  16:40 16:37+7:5316:42 16:39+7:562m--21617.717123mNFRDist - Alipurduar, West Bengal
58|--|APDJAlipur Duar Junction (3)  18:00 18:45+5:04---21652.5-53mNFRDist - Alipurduar, West Bengal
Scroll to Top
Scroll to Bottom